sensor_id;sensor_type;location;lat;lon;timestamp;temperature;humidity
20658;DHT22;10488;50.846;4.078;2022-12-18T00:01:57;-5.00;99.90
20658;DHT22;10488;50.846;4.078;2022-12-18T00:04:26;-5.00;99.90
20658;DHT22;10488;50.846;4.078;2022-12-18T00:06:52;-5.00;99.90
20658;DHT22;10488;50.846;4.078;2022-12-18T00:09:18;-5.00;99.90
20658;DHT22;10488;50.846;4.078;2022-12-18T00:11:44;-5.00;99.90
20658;DHT22;10488;50.846;4.078;2022-12-18T00:14:11;-5.00;99.90
20658;DHT22;10488;50.846;4.078;2022-12-18T00:16:37;-5.00;99.90
20658;DHT22;10488;50.846;4.078;2022-12-18T00:19:04;-5.00;99.90
20658;DHT22;10488;50.846;4.078;2022-12-18T00:21:31;-5.10;99.90
20658;DHT22;10488;50.846;4.078;2022-12-18T00:23:58;-5.20;99.90
20658;DHT22;10488;50.846;4.078;2022-12-18T00:26:26;-5.20;99.90
20658;DHT22;10488;50.846;4.078;2022-12-18T00:28:53;-5.20;99.90
20658;DHT22;10488;50.846;4.078;2022-12-18T00:31:21;-5.20;99.90
20658;DHT22;10488;50.846;4.078;2022-12-18T00:33:47;-5.20;99.90
20658;DHT22;10488;50.846;4.078;2022-12-18T00:36:15;-5.30;99.90
20658;DHT22;10488;50.846;4.078;2022-12-18T00:38:43;-5.30;99.90
20658;DHT22;10488;50.846;4.078;2022-12-18T00:41:09;-5.40;99.90
20658;DHT22;10488;50.846;4.078;2022-12-18T00:43:37;-5.30;99.90
20658;DHT22;10488;50.846;4.078;2022-12-18T00:46:03;-5.30;99.90
20658;DHT22;10488;50.846;4.078;2022-12-18T00:48:29;-5.30;99.90
20658;DHT22;10488;50.846;4.078;2022-12-18T00:50:54;-5.30;99.90
20658;DHT22;10488;50.846;4.078;2022-12-18T00:53:20;-5.10;99.90
20658;DHT22;10488;50.846;4.078;2022-12-18T00:55:46;-5.10;99.90
20658;DHT22;10488;50.846;4.078;2022-12-18T00:58:14;-5.20;99.90
20658;DHT22;10488;50.846;4.078;2022-12-18T01:00:41;-5.10;99.90
20658;DHT22;10488;50.846;4.078;2022-12-18T01:03:07;-5.10;99.90
20658;DHT22;10488;50.846;4.078;2022-12-18T01:05:33;-5.10;99.90
20658;DHT22;10488;50.846;4.078;2022-12-18T01:07:58;-5.10;99.90
20658;DHT22;10488;50.846;4.078;2022-12-18T01:10:25;-5.20;99.90
20658;DHT22;10488;50.846;4.078;2022-12-18T01:12:51;-5.10;99.90
20658;DHT22;10488;50.846;4.078;2022-12-18T01:15:18;-5.00;99.90
20658;DHT22;10488;50.846;4.078;2022-12-18T01:17:44;-5.00;99.90
20658;DHT22;10488;50.846;4.078;2022-12-18T01:20:11;-4.90;99.90
20658;DHT22;10488;50.846;4.078;2022-12-18T01:22:36;-4.90;99.90
20658;DHT22;10488;50.846;4.078;2022-12-18T01:25:03;-4.90;99.90
20658;DHT22;10488;50.846;4.078;2022-12-18T01:27:29;-4.90;99.90
20658;DHT22;10488;50.846;4.078;2022-12-18T01:29:55;-5.10;99.90
20658;DHT22;10488;50.846;4.078;2022-12-18T01:32:21;-5.10;99.90
20658;DHT22;10488;50.846;4.078;2022-12-18T01:34:47;-5.10;99.90
20658;DHT22;10488;50.846;4.078;2022-12-18T01:37:13;-5.20;99.90
20658;DHT22;10488;50.846;4.078;2022-12-18T01:39:38;-5.20;99.90
20658;DHT22;10488;50.846;4.078;2022-12-18T01:42:10;-5.20;99.90
20658;DHT22;10488;50.846;4.078;2022-12-18T01:47:34;-5.30;99.90
20658;DHT22;10488;50.846;4.078;2022-12-18T01:52:52;-5.30;99.90
20658;DHT22;10488;50.846;4.078;2022-12-18T01:55:22;-5.30;99.90
20658;DHT22;10488;50.846;4.078;2022-12-18T01:57:51;-5.40;99.90
20658;DHT22;10488;50.846;4.078;2022-12-18T02:00:19;-5.50;99.90
20658;DHT22;10488;50.846;4.078;2022-12-18T02:02:46;-5.50;99.90
20658;DHT22;10488;50.846;4.078;2022-12-18T02:05:16;-5.50;99.90
20658;DHT22;10488;50.846;4.078;2022-12-18T02:08:20;-5.50;99.90
20658;DHT22;10488;50.846;4.078;2022-12-18T02:19:45;-5.70;99.90
20658;DHT22;10488;50.846;4.078;2022-12-18T02:27:32;-5.70;99.90
20658;DHT22;10488;50.846;4.078;2022-12-18T02:30:01;-5.70;99.90
20658;DHT22;10488;50.846;4.078;2022-12-18T02:32:35;-5.70;99.90
20658;DHT22;10488;50.846;4.078;2022-12-18T02:35:05;-5.80;99.90
20658;DHT22;10488;50.846;4.078;2022-12-18T02:37:32;-5.80;99.90
20658;DHT22;10488;50.846;4.078;2022-12-18T02:39:59;-5.70;99.90
20658;DHT22;10488;50.846;4.078;2022-12-18T02:42:26;-5.70;99.90
20658;DHT22;10488;50.846;4.078;2022-12-18T02:44:54;-5.70;99.90
20658;DHT22;10488;50.846;4.078;2022-12-18T02:47:27;-5.70;99.90
20658;DHT22;10488;50.846;4.078;2022-12-18T02:53:22;-5.80;99.90
20658;DHT22;10488;50.846;4.078;2022-12-18T02:57:13;-5.70;99.90
20658;DHT22;10488;50.846;4.078;2022-12-18T02:59:15;-5.70;99.90
20658;DHT22;10488;50.846;4.078;2022-12-18T03:04:37;-5.80;99.90
20658;DHT22;10488;50.846;4.078;2022-12-18T03:07:09;-5.80;99.90
20658;DHT22;10488;50.846;4.078;2022-12-18T03:09:42;-5.70;99.90
20658;DHT22;10488;50.846;4.078;2022-12-18T03:12:24;-5.60;99.90
20658;DHT22;10488;50.846;4.078;2022-12-18T03:17:31;-5.80;99.90
20658;DHT22;10488;50.846;4.078;2022-12-18T03:20:00;-5.80;99.90
20658;DHT22;10488;50.846;4.078;2022-12-18T03:22:30;-5.90;99.90
20658;DHT22;10488;50.846;4.078;2022-12-18T03:24:59;-6.00;99.90
20658;DHT22;10488;50.846;4.078;2022-12-18T03:27:28;-6.00;99.90
20658;DHT22;10488;50.846;4.078;2022-12-18T03:30:01;-6.00;99.90
20658;DHT22;10488;50.846;4.078;2022-12-18T03:35:12;-6.10;99.90
20658;DHT22;10488;50.846;4.078;2022-12-18T03:37:38;-6.10;99.90
20658;DHT22;10488;50.846;4.078;2022-12-18T03:40:05;-6.10;99.90
20658;DHT22;10488;50.846;4.078;2022-12-18T03:42:47;-6.10;99.90
20658;DHT22;10488;50.846;4.078;2022-12-18T03:45:24;-6.10;99.90
20658;DHT22;10488;50.846;4.078;2022-12-18T03:48:08;-6.10;99.90
20658;DHT22;10488;50.846;4.078;2022-12-18T03:53:50;-6.20;99.90
20658;DHT22;10488;50.846;4.078;2022-12-18T03:56:18;-6.20;99.90
20658;DHT22;10488;50.846;4.078;2022-12-18T03:58:47;-6.30;99.90
20658;DHT22;10488;50.846;4.078;2022-12-18T04:01:15;-6.30;99.90
20658;DHT22;10488;50.846;4.078;2022-12-18T04:03:43;-6.40;99.90
20658;DHT22;10488;50.846;4.078;2022-12-18T04:06:10;-6.40;99.90
20658;DHT22;10488;50.846;4.078;2022-12-18T04:08:36;-6.40;99.90
20658;DHT22;10488;50.846;4.078;2022-12-18T04:11:02;-6.50;99.90
20658;DHT22;10488;50.846;4.078;2022-12-18T04:13:31;-6.40;99.90
20658;DHT22;10488;50.846;4.078;2022-12-18T04:15:58;-6.40;99.90
20658;DHT22;10488;50.846;4.078;2022-12-18T04:18:23;-6.40;99.90
20658;DHT22;10488;50.846;4.078;2022-12-18T04:20:50;-6.40;99.90
20658;DHT22;10488;50.846;4.078;2022-12-18T04:23:15;-6.40;99.90
20658;DHT22;10488;50.846;4.078;2022-12-18T04:25:41;-6.50;99.90
20658;DHT22;10488;50.846;4.078;2022-12-18T04:28:07;-6.50;99.90
20658;DHT22;10488;50.846;4.078;2022-12-18T04:30:33;-6.50;99.90
20658;DHT22;10488;50.846;4.078;2022-12-18T04:32:58;-6.50;99.90
20658;DHT22;10488;50.846;4.078;2022-12-18T04:35:24;-6.50;99.90
20658;DHT22;10488;50.846;4.078;2022-12-18T04:37:50;-6.60;99.90
20658;DHT22;10488;50.846;4.078;2022-12-18T04:40:16;-6.60;99.90
20658;DHT22;10488;50.846;4.078;2022-12-18T04:42:41;-6.60;99.90
20658;DHT22;10488;50.846;4.078;2022-12-18T04:45:07;-6.60;99.90
20658;DHT22;10488;50.846;4.078;2022-12-18T04:47:33;-6.60;99.90
20658;DHT22;10488;50.846;4.078;2022-12-18T04:49:59;-6.60;99.90
20658;DHT22;10488;50.846;4.078;2022-12-18T04:52:25;-6.60;99.90
20658;DHT22;10488;50.846;4.078;2022-12-18T04:54:50;-6.60;99.90
20658;DHT22;10488;50.846;4.078;2022-12-18T04:57:16;-6.70;99.90
20658;DHT22;10488;50.846;4.078;2022-12-18T04:59:44;-6.70;99.90
20658;DHT22;10488;50.846;4.078;2022-12-18T05:02:10;-6.70;99.90
20658;DHT22;10488;50.846;4.078;2022-12-18T05:04:37;-6.60;99.90
20658;DHT22;10488;50.846;4.078;2022-12-18T05:07:02;-6.60;99.90
20658;DHT22;10488;50.846;4.078;2022-12-18T05:09:29;-6.50;99.90
20658;DHT22;10488;50.846;4.078;2022-12-18T05:11:54;-6.30;99.90
20658;DHT22;10488;50.846;4.078;2022-12-18T05:14:20;-6.10;99.90
20658;DHT22;10488;50.846;4.078;2022-12-18T05:16:46;-5.90;99.90
20658;DHT22;10488;50.846;4.078;2022-12-18T05:19:11;-5.80;99.90
20658;DHT22;10488;50.846;4.078;2022-12-18T05:21:37;-5.70;99.90
20658;DHT22;10488;50.846;4.078;2022-12-18T05:24:03;-5.60;99.90
20658;DHT22;10488;50.846;4.078;2022-12-18T05:26:28;-5.60;99.90
20658;DHT22;10488;50.846;4.078;2022-12-18T05:28:54;-5.60;99.90
20658;DHT22;10488;50.846;4.078;2022-12-18T05:31:19;-5.50;99.90
20658;DHT22;10488;50.846;4.078;2022-12-18T05:33:45;-5.40;99.90
20658;DHT22;10488;50.846;4.078;2022-12-18T05:36:11;-5.50;99.90
20658;DHT22;10488;50.846;4.078;2022-12-18T05:38:38;-5.50;99.90
20658;DHT22;10488;50.846;4.078;2022-12-18T05:41:04;-5.50;99.90
20658;DHT22;10488;50.846;4.078;2022-12-18T05:43:30;-5.50;99.90
20658;DHT22;10488;50.846;4.078;2022-12-18T05:45:56;-5.40;99.90
20658;DHT22;10488;50.846;4.078;2022-12-18T05:48:23;-5.40;99.90
20658;DHT22;10488;50.846;4.078;2022-12-18T05:50:50;-5.50;99.90
20658;DHT22;10488;50.846;4.078;2022-12-18T05:53:17;-5.50;99.90
20658;DHT22;10488;50.846;4.078;2022-12-18T05:55:44;-5.60;99.90
20658;DHT22;10488;50.846;4.078;2022-12-18T05:58:11;-5.60;99.90
20658;DHT22;10488;50.846;4.078;2022-12-18T06:00:42;-5.70;99.90
20658;DHT22;10488;50.846;4.078;2022-12-18T06:03:09;-5.80;99.90
20658;DHT22;10488;50.846;4.078;2022-12-18T06:05:41;-5.80;99.90
20658;DHT22;10488;50.846;4.078;2022-12-18T06:08:07;-5.80;99.90
20658;DHT22;10488;50.846;4.078;2022-12-18T06:10:33;-5.80;99.90
20658;DHT22;10488;50.846;4.078;2022-12-18T06:12:59;-5.90;99.90
20658;DHT22;10488;50.846;4.078;2022-12-18T06:15:24;-6.00;99.90
20658;DHT22;10488;50.846;4.078;2022-12-18T06:17:50;-6.10;99.90
20658;DHT22;10488;50.846;4.078;2022-12-18T06:20:16;-6.10;99.90
20658;DHT22;10488;50.846;4.078;2022-12-18T06:22:41;-6.10;99.90
20658;DHT22;10488;50.846;4.078;2022-12-18T06:25:07;-6.00;99.90
20658;DHT22;10488;50.846;4.078;2022-12-18T06:27:33;-6.00;99.90
20658;DHT22;10488;50.846;4.078;2022-12-18T06:29:59;-6.10;99.90
20658;DHT22;10488;50.846;4.078;2022-12-18T06:32:26;-6.00;99.90
20658;DHT22;10488;50.846;4.078;2022-12-18T06:34:52;-6.00;99.90
20658;DHT22;10488;50.846;4.078;2022-12-18T06:37:18;-6.00;99.90
20658;DHT22;10488;50.846;4.078;2022-12-18T06:39:44;-6.00;99.90
20658;DHT22;10488;50.846;4.078;2022-12-18T06:42:09;-5.90;99.90
20658;DHT22;10488;50.846;4.078;2022-12-18T06:44:35;-5.90;99.90
20658;DHT22;10488;50.846;4.078;2022-12-18T06:47:00;-5.80;99.90
20658;DHT22;10488;50.846;4.078;2022-12-18T06:49:26;-5.60;99.90
20658;DHT22;10488;50.846;4.078;2022-12-18T06:51:52;-5.60;99.90
20658;DHT22;10488;50.846;4.078;2022-12-18T06:54:17;-5.50;99.90
20658;DHT22;10488;50.846;4.078;2022-12-18T06:56:45;-5.40;99.90
20658;DHT22;10488;50.846;4.078;2022-12-18T06:59:13;-5.30;99.90
20658;DHT22;10488;50.846;4.078;2022-12-18T07:04:39;-5.30;99.90
20658;DHT22;10488;50.846;4.078;2022-12-18T07:07:05;-5.20;99.90
20658;DHT22;10488;50.846;4.078;2022-12-18T07:09:30;-5.10;99.90
20658;DHT22;10488;50.846;4.078;2022-12-18T07:11:56;-5.10;99.90
20658;DHT22;10488;50.846;4.078;2022-12-18T07:14:22;-5.30;99.90
20658;DHT22;10488;50.846;4.078;2022-12-18T07:16:47;-5.30;99.90
20658;DHT22;10488;50.846;4.078;2022-12-18T07:19:13;-5.20;99.90
20658;DHT22;10488;50.846;4.078;2022-12-18T07:21:39;-5.10;99.90
20658;DHT22;10488;50.846;4.078;2022-12-18T07:24:05;-5.20;99.90
20658;DHT22;10488;50.846;4.078;2022-12-18T07:26:31;-5.30;99.90
20658;DHT22;10488;50.846;4.078;2022-12-18T07:28:57;-5.30;99.90
20658;DHT22;10488;50.846;4.078;2022-12-18T07:31:23;-5.20;99.90
20658;DHT22;10488;50.846;4.078;2022-12-18T07:33:49;-5.20;99.90
20658;DHT22;10488;50.846;4.078;2022-12-18T07:36:16;-5.20;99.90
20658;DHT22;10488;50.846;4.078;2022-12-18T07:38:42;-5.30;99.90
20658;DHT22;10488;50.846;4.078;2022-12-18T07:41:10;-5.30;99.90
20658;DHT22;10488;50.846;4.078;2022-12-18T07:43:37;-5.20;99.90
20658;DHT22;10488;50.846;4.078;2022-12-18T07:46:03;-5.20;99.90
20658;DHT22;10488;50.846;4.078;2022-12-18T07:48:29;-5.40;99.90
20658;DHT22;10488;50.846;4.078;2022-12-18T07:50:59;-5.40;99.90
20658;DHT22;10488;50.846;4.078;2022-12-18T07:53:25;-5.40;99.90
20658;DHT22;10488;50.846;4.078;2022-12-18T07:56:02;-5.40;99.90
20658;DHT22;10488;50.846;4.078;2022-12-18T07:58:29;-5.40;99.90
20658;DHT22;10488;50.846;4.078;2022-12-18T08:01:02;-5.40;99.90
20658;DHT22;10488;50.846;4.078;2022-12-18T08:03:29;-5.40;99.90
20658;DHT22;10488;50.846;4.078;2022-12-18T08:05:59;-5.40;99.90
20658;DHT22;10488;50.846;4.078;2022-12-18T08:08:25;-5.30;99.90
20658;DHT22;10488;50.846;4.078;2022-12-18T08:10:51;-5.20;99.90
20658;DHT22;10488;50.846;4.078;2022-12-18T08:13:16;-5.40;99.90
20658;DHT22;10488;50.846;4.078;2022-12-18T08:15:42;-5.40;99.90
20658;DHT22;10488;50.846;4.078;2022-12-18T08:18:08;-5.40;99.90
20658;DHT22;10488;50.846;4.078;2022-12-18T08:20:33;-5.30;99.90
20658;DHT22;10488;50.846;4.078;2022-12-18T08:22:59;-5.10;99.90
20658;DHT22;10488;50.846;4.078;2022-12-18T08:25:24;-5.00;99.90
20658;DHT22;10488;50.846;4.078;2022-12-18T08:27:50;-4.90;99.90
20658;DHT22;10488;50.846;4.078;2022-12-18T08:30:16;-4.80;99.90
20658;DHT22;10488;50.846;4.078;2022-12-18T08:32:41;-4.80;99.90
20658;DHT22;10488;50.846;4.078;2022-12-18T08:35:07;-4.70;99.90
20658;DHT22;10488;50.846;4.078;2022-12-18T08:37:33;-4.60;99.90
20658;DHT22;10488;50.846;4.078;2022-12-18T08:39:59;-4.60;99.90
20658;DHT22;10488;50.846;4.078;2022-12-18T08:42:25;-4.60;99.90
20658;DHT22;10488;50.846;4.078;2022-12-18T08:45:09;-4.50;99.90
20658;DHT22;10488;50.846;4.078;2022-12-18T08:47:35;-4.30;99.90
20658;DHT22;10488;50.846;4.078;2022-12-18T08:50:01;-4.20;99.90
20658;DHT22;10488;50.846;4.078;2022-12-18T08:52:26;-4.10;99.90
20658;DHT22;10488;50.846;4.078;2022-12-18T08:54:53;-4.00;99.90
20658;DHT22;10488;50.846;4.078;2022-12-18T08:57:19;-4.00;99.90
20658;DHT22;10488;50.846;4.078;2022-12-18T08:59:44;-3.90;99.90
20658;DHT22;10488;50.846;4.078;2022-12-18T09:02:10;-3.70;99.90
20658;DHT22;10488;50.846;4.078;2022-12-18T09:04:36;-3.50;99.90
20658;DHT22;10488;50.846;4.078;2022-12-18T09:07:02;-3.30;99.90
20658;DHT22;10488;50.846;4.078;2022-12-18T09:09:27;-3.30;99.90
20658;DHT22;10488;50.846;4.078;2022-12-18T09:11:54;-3.30;99.90
20658;DHT22;10488;50.846;4.078;2022-12-18T09:14:20;-3.10;99.90
20658;DHT22;10488;50.846;4.078;2022-12-18T09:16:45;-3.00;99.90
20658;DHT22;10488;50.846;4.078;2022-12-18T09:19:11;-2.70;99.90
20658;DHT22;10488;50.846;4.078;2022-12-18T09:21:38;-2.50;99.90
20658;DHT22;10488;50.846;4.078;2022-12-18T09:24:08;-2.60;99.90
20658;DHT22;10488;50.846;4.078;2022-12-18T09:26:39;-2.60;99.90
20658;DHT22;10488;50.846;4.078;2022-12-18T09:29:05;-2.60;99.90
20658;DHT22;10488;50.846;4.078;2022-12-18T09:31:33;-2.40;99.90
20658;DHT22;10488;50.846;4.078;2022-12-18T09:33:59;-2.30;99.90
20658;DHT22;10488;50.846;4.078;2022-12-18T09:36:25;-2.20;99.90
20658;DHT22;10488;50.846;4.078;2022-12-18T09:38:50;-2.10;99.90
20658;DHT22;10488;50.846;4.078;2022-12-18T09:46:43;-1.90;99.90
20658;DHT22;10488;50.846;4.078;2022-12-18T09:49:17;-1.70;99.90
20658;DHT22;10488;50.846;4.078;2022-12-18T09:51:49;-1.60;99.90
20658;DHT22;10488;50.846;4.078;2022-12-18T09:54:22;-1.50;99.90
20658;DHT22;10488;50.846;4.078;2022-12-18T09:56:49;-1.60;99.90
20658;DHT22;10488;50.846;4.078;2022-12-18T09:59:26;-1.50;99.90
20658;DHT22;10488;50.846;4.078;2022-12-18T10:01:53;-1.50;99.90
20658;DHT22;10488;50.846;4.078;2022-12-18T10:04:18;-1.50;99.90
20658;DHT22;10488;50.846;4.078;2022-12-18T10:07:03;-1.50;99.90
20658;DHT22;10488;50.846;4.078;2022-12-18T10:09:52;-1.50;99.90
20658;DHT22;10488;50.846;4.078;2022-12-18T10:15:39;-1.30;99.90
20658;DHT22;10488;50.846;4.078;2022-12-18T10:18:17;-1.30;99.90
20658;DHT22;10488;50.846;4.078;2022-12-18T10:20:49;-1.10;99.90
20658;DHT22;10488;50.846;4.078;2022-12-18T10:23:26;-1.10;99.90
20658;DHT22;10488;50.846;4.078;2022-12-18T10:25:55;-1.00;99.90
20658;DHT22;10488;50.846;4.078;2022-12-18T10:28:26;-1.10;99.90
20658;DHT22;10488;50.846;4.078;2022-12-18T10:30:52;-1.10;99.90
20658;DHT22;10488;50.846;4.078;2022-12-18T10:33:22;-1.00;99.90
20658;DHT22;10488;50.846;4.078;2022-12-18T10:35:51;-0.80;99.90
20658;DHT22;10488;50.846;4.078;2022-12-18T10:41:01;-0.40;99.90
20658;DHT22;10488;50.846;4.078;2022-12-18T10:43:30;-0.40;99.90
20658;DHT22;10488;50.846;4.078;2022-12-18T10:48:55;-0.10;99.90
20658;DHT22;10488;50.846;4.078;2022-12-18T10:51:31;-0.20;99.90
20658;DHT22;10488;50.846;4.078;2022-12-18T10:54:18;-0.40;99.90
20658;DHT22;10488;50.846;4.078;2022-12-18T10:56:45;-0.40;99.90
20658;DHT22;10488;50.846;4.078;2022-12-18T10:59:16;-0.40;99.90
20658;DHT22;10488;50.846;4.078;2022-12-18T11:04:21;-0.20;99.90
20658;DHT22;10488;50.846;4.078;2022-12-18T11:09:39;0.00;99.90
20658;DHT22;10488;50.846;4.078;2022-12-18T11:12:18;0.00;99.90
20658;DHT22;10488;50.846;4.078;2022-12-18T11:14:47;0.20;99.90
20658;DHT22;10488;50.846;4.078;2022-12-18T11:19:56;0.30;99.90
20658;DHT22;10488;50.846;4.078;2022-12-18T11:22:26;0.20;99.90
20658;DHT22;10488;50.846;4.078;2022-12-18T11:25:02;0.30;99.90
20658;DHT22;10488;50.846;4.078;2022-12-18T11:27:29;0.50;99.90
20658;DHT22;10488;50.846;4.078;2022-12-18T11:30:08;0.50;99.90
20658;DHT22;10488;50.846;4.078;2022-12-18T11:32:48;0.50;99.90
20658;DHT22;10488;50.846;4.078;2022-12-18T11:35:21;0.70;99.90
20658;DHT22;10488;50.846;4.078;2022-12-18T11:38:04;0.60;99.90
20658;DHT22;10488;50.846;4.078;2022-12-18T11:40:37;0.60;99.90
20658;DHT22;10488;50.846;4.078;2022-12-18T11:43:31;0.70;99.90
20658;DHT22;10488;50.846;4.078;2022-12-18T11:46:12;0.80;99.90
20658;DHT22;10488;50.846;4.078;2022-12-18T11:48:47;0.80;99.90
20658;DHT22;10488;50.846;4.078;2022-12-18T11:51:19;0.90;99.90
20658;DHT22;10488;50.846;4.078;2022-12-18T11:53:48;0.80;99.90
20658;DHT22;10488;50.846;4.078;2022-12-18T11:59:01;0.60;99.90
20658;DHT22;10488;50.846;4.078;2022-12-18T12:16:23;0.90;99.90
20658;DHT22;10488;50.846;4.078;2022-12-18T12:21:39;0.80;99.90
20658;DHT22;10488;50.846;4.078;2022-12-18T12:24:31;0.80;99.90
20658;DHT22;10488;50.846;4.078;2022-12-18T12:29:46;0.90;99.90
20658;DHT22;10488;50.846;4.078;2022-12-18T12:35:09;0.90;99.90
20658;DHT22;10488;50.846;4.078;2022-12-18T12:40:27;0.90;99.90
20658;DHT22;10488;50.846;4.078;2022-12-18T12:42:58;0.90;99.90
20658;DHT22;10488;50.846;4.078;2022-12-18T12:46:09;1.10;99.90
20658;DHT22;10488;50.846;4.078;2022-12-18T12:48:51;1.00;99.90
20658;DHT22;10488;50.846;4.078;2022-12-18T12:53:56;1.00;99.90
20658;DHT22;10488;50.846;4.078;2022-12-18T12:56:23;1.00;99.90
20658;DHT22;10488;50.846;4.078;2022-12-18T13:01:52;1.10;99.90
20658;DHT22;10488;50.846;4.078;2022-12-18T13:07:22;1.30;99.90
20658;DHT22;10488;50.846;4.078;2022-12-18T13:12:56;1.10;99.90
20658;DHT22;10488;50.846;4.078;2022-12-18T13:21:02;1.00;99.90
20658;DHT22;10488;50.846;4.078;2022-12-18T13:23:34;1.00;99.90
20658;DHT22;10488;50.846;4.078;2022-12-18T13:33:43;1.10;99.90
20658;DHT22;10488;50.846;4.078;2022-12-18T13:36:29;1.10;99.90
20658;DHT22;10488;50.846;4.078;2022-12-18T13:41:39;1.20;99.90
20658;DHT22;10488;50.846;4.078;2022-12-18T13:46:50;1.20;99.90
20658;DHT22;10488;50.846;4.078;2022-12-18T13:51:52;1.20;99.90
20658;DHT22;10488;50.846;4.078;2022-12-18T13:54:41;1.10;99.90
20658;DHT22;10488;50.846;4.078;2022-12-18T13:57:43;1.10;99.90
20658;DHT22;10488;50.846;4.078;2022-12-18T14:00:28;1.10;99.90
20658;DHT22;10488;50.846;4.078;2022-12-18T14:02:54;1.00;99.90
20658;DHT22;10488;50.846;4.078;2022-12-18T14:05:32;0.90;99.90
20658;DHT22;10488;50.846;4.078;2022-12-18T14:08:16;0.90;99.90
20658;DHT22;10488;50.846;4.078;2022-12-18T14:10:44;0.90;99.90
20658;DHT22;10488;50.846;4.078;2022-12-18T14:13:17;0.80;99.90
20658;DHT22;10488;50.846;4.078;2022-12-18T14:15:47;0.90;99.90
20658;DHT22;10488;50.846;4.078;2022-12-18T14:20:43;0.70;99.90
20658;DHT22;10488;50.846;4.078;2022-12-18T14:23:34;0.70;99.90
20658;DHT22;10488;50.846;4.078;2022-12-18T14:26:02;0.70;99.90
20658;DHT22;10488;50.846;4.078;2022-12-18T14:28:29;0.70;99.90
20658;DHT22;10488;50.846;4.078;2022-12-18T14:30:55;0.70;99.90
20658;DHT22;10488;50.846;4.078;2022-12-18T14:33:24;0.70;99.90
20658;DHT22;10488;50.846;4.078;2022-12-18T14:36:01;0.80;99.90
20658;DHT22;10488;50.846;4.078;2022-12-18T14:38:35;0.70;99.90
20658;DHT22;10488;50.846;4.078;2022-12-18T14:43:37;0.80;99.90
20658;DHT22;10488;50.846;4.078;2022-12-18T14:46:06;0.70;99.90
20658;DHT22;10488;50.846;4.078;2022-12-18T14:48:50;0.80;99.90
20658;DHT22;10488;50.846;4.078;2022-12-18T14:51:21;0.80;99.90
20658;DHT22;10488;50.846;4.078;2022-12-18T14:53:56;0.80;99.90
20658;DHT22;10488;50.846;4.078;2022-12-18T14:56:30;0.80;99.90
20658;DHT22;10488;50.846;4.078;2022-12-18T14:58:59;0.80;99.90
20658;DHT22;10488;50.846;4.078;2022-12-18T15:03:58;0.70;99.90
20658;DHT22;10488;50.846;4.078;2022-12-18T15:06:28;0.80;99.90
20658;DHT22;10488;50.846;4.078;2022-12-18T15:08:56;0.80;99.90
20658;DHT22;10488;50.846;4.078;2022-12-18T15:11:29;0.90;99.90
20658;DHT22;10488;50.846;4.078;2022-12-18T15:13:58;0.90;99.90
20658;DHT22;10488;50.846;4.078;2022-12-18T15:16:24;0.80;99.90
20658;DHT22;10488;50.846;4.078;2022-12-18T15:18:50;0.80;99.90
20658;DHT22;10488;50.846;4.078;2022-12-18T15:21:18;0.80;99.90
20658;DHT22;10488;50.846;4.078;2022-12-18T15:26:12;0.80;99.90
20658;DHT22;10488;50.846;4.078;2022-12-18T15:28:49;0.90;99.90
20658;DHT22;10488;50.846;4.078;2022-12-18T15:34:05;0.80;99.90
20658;DHT22;10488;50.846;4.078;2022-12-18T15:36:31;0.80;99.90
20658;DHT22;10488;50.846;4.078;2022-12-18T15:38:57;0.80;99.90
20658;DHT22;10488;50.846;4.078;2022-12-18T15:41:23;0.80;99.90
20658;DHT22;10488;50.846;4.078;2022-12-18T15:43:51;0.80;99.90
20658;DHT22;10488;50.846;4.078;2022-12-18T15:46:20;0.90;99.90
20658;DHT22;10488;50.846;4.078;2022-12-18T15:48:48;0.80;99.90
20658;DHT22;10488;50.846;4.078;2022-12-18T15:51:20;0.90;99.90
20658;DHT22;10488;50.846;4.078;2022-12-18T15:53:48;1.00;99.90
20658;DHT22;10488;50.846;4.078;2022-12-18T15:56:16;1.00;99.90
20658;DHT22;10488;50.846;4.078;2022-12-18T15:59:00;1.00;99.90
20658;DHT22;10488;50.846;4.078;2022-12-18T16:01:28;0.90;99.90
20658;DHT22;10488;50.846;4.078;2022-12-18T16:03:55;1.00;99.90
20658;DHT22;10488;50.846;4.078;2022-12-18T16:06:21;1.00;99.90
20658;DHT22;10488;50.846;4.078;2022-12-18T16:08:47;1.10;99.90
20658;DHT22;10488;50.846;4.078;2022-12-18T16:11:25;1.20;99.90
20658;DHT22;10488;50.846;4.078;2022-12-18T16:14:11;1.10;99.90
20658;DHT22;10488;50.846;4.078;2022-12-18T16:16:39;1.20;99.90
20658;DHT22;10488;50.846;4.078;2022-12-18T16:19:05;1.20;99.90
20658;DHT22;10488;50.846;4.078;2022-12-18T16:21:30;1.20;99.90
20658;DHT22;10488;50.846;4.078;2022-12-18T16:23:56;1.20;99.90
20658;DHT22;10488;50.846;4.078;2022-12-18T16:26:22;1.20;99.90
20658;DHT22;10488;50.846;4.078;2022-12-18T16:28:47;1.20;99.90
20658;DHT22;10488;50.846;4.078;2022-12-18T16:31:13;1.30;99.90
20658;DHT22;10488;50.846;4.078;2022-12-18T16:33:38;1.20;99.90
20658;DHT22;10488;50.846;4.078;2022-12-18T16:36:04;1.30;99.90
20658;DHT22;10488;50.846;4.078;2022-12-18T16:38:30;1.40;99.90
20658;DHT22;10488;50.846;4.078;2022-12-18T16:40:55;1.40;99.90
20658;DHT22;10488;50.846;4.078;2022-12-18T16:43:40;1.40;99.90
20658;DHT22;10488;50.846;4.078;2022-12-18T16:46:05;1.40;99.90
20658;DHT22;10488;50.846;4.078;2022-12-18T16:48:31;1.40;99.90
20658;DHT22;10488;50.846;4.078;2022-12-18T16:51:04;1.50;99.90
20658;DHT22;10488;50.846;4.078;2022-12-18T16:53:31;1.50;99.90
20658;DHT22;10488;50.846;4.078;2022-12-18T16:55:57;1.50;99.90
20658;DHT22;10488;50.846;4.078;2022-12-18T16:58:23;1.50;99.90
20658;DHT22;10488;50.846;4.078;2022-12-18T17:00:48;1.50;99.90
20658;DHT22;10488;50.846;4.078;2022-12-18T17:03:14;1.50;99.90
20658;DHT22;10488;50.846;4.078;2022-12-18T17:05:40;1.50;99.90
20658;DHT22;10488;50.846;4.078;2022-12-18T17:08:05;1.50;99.90
20658;DHT22;10488;50.846;4.078;2022-12-18T17:10:33;1.60;99.90
20658;DHT22;10488;50.846;4.078;2022-12-18T17:12:59;1.50;99.90
20658;DHT22;10488;50.846;4.078;2022-12-18T17:15:25;1.50;99.90
20658;DHT22;10488;50.846;4.078;2022-12-18T17:17:51;1.50;99.90
20658;DHT22;10488;50.846;4.078;2022-12-18T17:20:16;1.50;99.90
20658;DHT22;10488;50.846;4.078;2022-12-18T17:22:42;1.50;99.90
20658;DHT22;10488;50.846;4.078;2022-12-18T17:25:08;1.60;99.90
20658;DHT22;10488;50.846;4.078;2022-12-18T17:27:34;1.60;99.90
20658;DHT22;10488;50.846;4.078;2022-12-18T17:30:01;1.60;99.90
20658;DHT22;10488;50.846;4.078;2022-12-18T17:32:28;1.60;99.90
20658;DHT22;10488;50.846;4.078;2022-12-18T17:34:54;1.60;99.90
20658;DHT22;10488;50.846;4.078;2022-12-18T17:37:19;1.60;99.90
20658;DHT22;10488;50.846;4.078;2022-12-18T17:39:45;1.50;99.90
20658;DHT22;10488;50.846;4.078;2022-12-18T17:42:11;1.60;99.90
20658;DHT22;10488;50.846;4.078;2022-12-18T17:44:37;1.50;99.90
20658;DHT22;10488;50.846;4.078;2022-12-18T17:47:04;1.60;99.90
20658;DHT22;10488;50.846;4.078;2022-12-18T17:49:30;1.70;99.90
20658;DHT22;10488;50.846;4.078;2022-12-18T17:51:56;1.50;99.90
20658;DHT22;10488;50.846;4.078;2022-12-18T17:54:22;1.50;99.90
20658;DHT22;10488;50.846;4.078;2022-12-18T17:56:47;1.50;99.90
20658;DHT22;10488;50.846;4.078;2022-12-18T17:59:13;1.60;99.90
20658;DHT22;10488;50.846;4.078;2022-12-18T18:01:39;1.70;99.90